sensor_id;sensor_type;location;lat;lon;timestamp;P1;durP1;ratioP1;P2;durP2;ratioP2
59054;SDS011;44845;51.444;7.460;2023-02-28T00:00:00;3.17;;;2.33;;
59054;SDS011;44845;51.444;7.460;2023-02-28T00:02:25;6.43;;;2.20;;
59054;SDS011;44845;51.444;7.460;2023-02-28T00:04:51;4.95;;;2.30;;
59054;SDS011;44845;51.444;7.460;2023-02-28T00:07:25;8.43;;;2.97;;
59054;SDS011;44845;51.444;7.460;2023-02-28T00:09:52;4.20;;;2.40;;
59054;SDS011;44845;51.444;7.460;2023-02-28T00:12:17;3.78;;;2.25;;
59054;SDS011;44845;51.444;7.460;2023-02-28T00:14:43;9.15;;;2.40;;
59054;SDS011;44845;51.444;7.460;2023-02-28T00:17:08;4.95;;;2.90;;
59054;SDS011;44845;51.444;7.460;2023-02-28T00:19:33;2.90;;;2.30;;
59054;SDS011;44845;51.444;7.460;2023-02-28T00:21:59;4.50;;;2.33;;
59054;SDS011;44845;51.444;7.460;2023-02-28T00:24:24;2.65;;;1.70;;
59054;SDS011;44845;51.444;7.460;2023-02-28T00:26:49;4.35;;;2.15;;
59054;SDS011;44845;51.444;7.460;2023-02-28T00:29:15;7.03;;;2.53;;
59054;SDS011;44845;51.444;7.460;2023-02-28T00:31:40;4.32;;;2.35;;
59054;SDS011;44845;51.444;7.460;2023-02-28T00:34:05;4.68;;;2.47;;
59054;SDS011;44845;51.444;7.460;2023-02-28T00:36:31;4.35;;;2.47;;
59054;SDS011;44845;51.444;7.460;2023-02-28T00:38:56;4.30;;;2.60;;
59054;SDS011;44845;51.444;7.460;2023-02-28T00:41:21;4.18;;;2.08;;
59054;SDS011;44845;51.444;7.460;2023-02-28T00:43:47;3.38;;;2.17;;
59054;SDS011;44845;51.444;7.460;2023-02-28T00:46:12;3.10;;;2.15;;
59054;SDS011;44845;51.444;7.460;2023-02-28T00:48:37;3.08;;;2.05;;
59054;SDS011;44845;51.444;7.460;2023-02-28T00:51:03;3.92;;;1.90;;
59054;SDS011;44845;51.444;7.460;2023-02-28T00:53:28;4.00;;;2.10;;
59054;SDS011;44845;51.444;7.460;2023-02-28T00:55:54;3.67;;;2.22;;
59054;SDS011;44845;51.444;7.460;2023-02-28T00:58:20;5.15;;;1.92;;
59054;SDS011;44845;51.444;7.460;2023-02-28T01:00:45;4.07;;;2.22;;
59054;SDS011;44845;51.444;7.460;2023-02-28T01:03:15;3.38;;;2.42;;
59054;SDS011;44845;51.444;7.460;2023-02-28T01:05:41;6.35;;;2.60;;
59054;SDS011;44845;51.444;7.460;2023-02-28T01:08:07;3.97;;;2.03;;
59054;SDS011;44845;51.444;7.460;2023-02-28T01:10:32;3.60;;;2.15;;
59054;SDS011;44845;51.444;7.460;2023-02-28T01:12:58;4.53;;;1.88;;
59054;SDS011;44845;51.444;7.460;2023-02-28T01:15:23;6.97;;;2.50;;
59054;SDS011;44845;51.444;7.460;2023-02-28T01:17:49;6.18;;;2.45;;
59054;SDS011;44845;51.444;7.460;2023-02-28T01:20:14;4.43;;;2.53;;
59054;SDS011;44845;51.444;7.460;2023-02-28T01:22:39;5.70;;;3.45;;
59054;SDS011;44845;51.444;7.460;2023-02-28T01:25:05;6.10;;;2.53;;
59054;SDS011;44845;51.444;7.460;2023-02-28T01:27:30;6.57;;;2.05;;
59054;SDS011;44845;51.444;7.460;2023-02-28T01:29:56;3.97;;;2.08;;
59054;SDS011;44845;51.444;7.460;2023-02-28T01:32:21;3.35;;;2.13;;
59054;SDS011;44845;51.444;7.460;2023-02-28T01:34:46;5.35;;;2.20;;
59054;SDS011;44845;51.444;7.460;2023-02-28T01:37:11;4.75;;;2.22;;
59054;SDS011;44845;51.444;7.460;2023-02-28T01:39:37;4.22;;;2.42;;
59054;SDS011;44845;51.444;7.460;2023-02-28T01:42:02;4.72;;;2.10;;
59054;SDS011;44845;51.444;7.460;2023-02-28T01:47:21;6.70;;;2.53;;
59054;SDS011;44845;51.444;7.460;2023-02-28T01:49:50;5.03;;;2.42;;
59054;SDS011;44845;51.444;7.460;2023-02-28T01:52:16;5.28;;;2.13;;
59054;SDS011;44845;51.444;7.460;2023-02-28T01:54:47;7.05;;;2.22;;
59054;SDS011;44845;51.444;7.460;2023-02-28T01:57:16;4.63;;;2.28;;
59054;SDS011;44845;51.444;7.460;2023-02-28T01:59:48;4.78;;;2.10;;
59054;SDS011;44845;51.444;7.460;2023-02-28T02:02:19;3.13;;;2.30;;
59054;SDS011;44845;51.444;7.460;2023-02-28T02:04:51;7.57;;;3.17;;
59054;SDS011;44845;51.444;7.460;2023-02-28T02:07:26;2.92;;;2.13;;
59054;SDS011;44845;51.444;7.460;2023-02-28T02:10:01;4.75;;;2.50;;
59054;SDS011;44845;51.444;7.460;2023-02-28T02:12:52;4.38;;;2.30;;
59054;SDS011;44845;51.444;7.460;2023-02-28T02:18:30;5.10;;;2.28;;
59054;SDS011;44845;51.444;7.460;2023-02-28T02:21:24;7.32;;;2.65;;
59054;SDS011;44845;51.444;7.460;2023-02-28T02:26:51;6.00;;;2.33;;
59054;SDS011;44845;51.444;7.460;2023-02-28T02:29:40;6.28;;;2.45;;
59054;SDS011;44845;51.444;7.460;2023-02-28T02:35:14;2.67;;;2.20;;
59054;SDS011;44845;51.444;7.460;2023-02-28T02:38:06;4.78;;;2.42;;
59054;SDS011;44845;51.444;7.460;2023-02-28T02:43:50;4.43;;;2.20;;
59054;SDS011;44845;51.444;7.460;2023-02-28T02:46:21;2.90;;;2.13;;
59054;SDS011;44845;51.444;7.460;2023-02-28T02:48:52;5.43;;;2.38;;
59054;SDS011;44845;51.444;7.460;2023-02-28T02:51:22;4.55;;;1.83;;
59054;SDS011;44845;51.444;7.460;2023-02-28T02:53:53;4.57;;;2.13;;
59054;SDS011;44845;51.444;7.460;2023-02-28T02:56:25;4.35;;;2.03;;
59054;SDS011;44845;51.444;7.460;2023-02-28T02:58:54;4.25;;;2.60;;
59054;SDS011;44845;51.444;7.460;2023-02-28T03:01:24;3.28;;;2.20;;
59054;SDS011;44845;51.444;7.460;2023-02-28T03:04:00;5.30;;;2.33;;
59054;SDS011;44845;51.444;7.460;2023-02-28T03:06:28;2.67;;;1.90;;
59054;SDS011;44845;51.444;7.460;2023-02-28T03:08:53;3.40;;;2.03;;
59054;SDS011;44845;51.444;7.460;2023-02-28T03:11:18;4.45;;;1.85;;
59054;SDS011;44845;51.444;7.460;2023-02-28T03:21:57;4.13;;;2.25;;
59054;SDS011;44845;51.444;7.460;2023-02-28T03:27:15;3.08;;;1.77;;
59054;SDS011;44845;51.444;7.460;2023-02-28T03:29:53;4.10;;;1.10;;
59054;SDS011;44845;51.444;7.460;2023-02-28T03:32:42;1.95;;;1.23;;
59054;SDS011;44845;51.444;7.460;2023-02-28T03:35:25;2.60;;;1.33;;
59054;SDS011;44845;51.444;7.460;2023-02-28T03:37:58;2.05;;;1.17;;
59054;SDS011;44845;51.444;7.460;2023-02-28T03:40:31;2.05;;;1.10;;
59054;SDS011;44845;51.444;7.460;2023-02-28T03:43:08;5.28;;;1.40;;
59054;SDS011;44845;51.444;7.460;2023-02-28T03:45:39;1.98;;;1.35;;
59054;SDS011;44845;51.444;7.460;2023-02-28T03:48:11;1.42;;;1.30;;
59054;SDS011;44845;51.444;7.460;2023-02-28T03:50:45;4.63;;;1.50;;
59054;SDS011;44845;51.444;7.460;2023-02-28T03:53:32;2.65;;;1.48;;
59054;SDS011;44845;51.444;7.460;2023-02-28T03:56:06;5.63;;;1.38;;
59054;SDS011;44845;51.444;7.460;2023-02-28T03:58:35;2.67;;;1.33;;
59054;SDS011;44845;51.444;7.460;2023-02-28T04:01:08;5.72;;;1.60;;
59054;SDS011;44845;51.444;7.460;2023-02-28T04:04:10;1.65;;;1.20;;
59054;SDS011;44845;51.444;7.460;2023-02-28T04:06:37;2.63;;;1.67;;
59054;SDS011;44845;51.444;7.460;2023-02-28T04:09:03;3.10;;;1.30;;
59054;SDS011;44845;51.444;7.460;2023-02-28T04:11:47;3.33;;;1.70;;
59054;SDS011;44845;51.444;7.460;2023-02-28T04:14:16;3.55;;;1.58;;
59054;SDS011;44845;51.444;7.460;2023-02-28T04:16:41;6.57;;;1.17;;
59054;SDS011;44845;51.444;7.460;2023-02-28T04:19:07;4.22;;;1.63;;
59054;SDS011;44845;51.444;7.460;2023-02-28T04:21:38;2.88;;;1.80;;
59054;SDS011;44845;51.444;7.460;2023-02-28T04:24:08;6.53;;;1.37;;
59054;SDS011;44845;51.444;7.460;2023-02-28T04:26:39;2.42;;;1.95;;
59054;SDS011;44845;51.444;7.460;2023-02-28T04:29:06;4.18;;;1.80;;
59054;SDS011;44845;51.444;7.460;2023-02-28T04:31:32;5.38;;;1.70;;
59054;SDS011;44845;51.444;7.460;2023-02-28T04:33:58;2.38;;;1.50;;
59054;SDS011;44845;51.444;7.460;2023-02-28T04:36:23;2.42;;;1.60;;
59054;SDS011;44845;51.444;7.460;2023-02-28T04:38:49;3.03;;;1.98;;
59054;SDS011;44845;51.444;7.460;2023-02-28T04:41:15;4.00;;;1.60;;
59054;SDS011;44845;51.444;7.460;2023-02-28T04:43:41;4.05;;;1.55;;
59054;SDS011;44845;51.444;7.460;2023-02-28T04:46:07;4.35;;;1.70;;
59054;SDS011;44845;51.444;7.460;2023-02-28T04:48:33;4.22;;;1.63;;
59054;SDS011;44845;51.444;7.460;2023-02-28T04:51:04;3.92;;;2.00;;
59054;SDS011;44845;51.444;7.460;2023-02-28T04:53:35;2.55;;;1.85;;
59054;SDS011;44845;51.444;7.460;2023-02-28T04:56:01;3.22;;;1.50;;
59054;SDS011;44845;51.444;7.460;2023-02-28T04:58:27;2.83;;;1.80;;
59054;SDS011;44845;51.444;7.460;2023-02-28T05:00:53;1.83;;;1.50;;
59054;SDS011;44845;51.444;7.460;2023-02-28T05:03:19;2.03;;;1.58;;
59054;SDS011;44845;51.444;7.460;2023-02-28T05:05:45;3.78;;;1.70;;
59054;SDS011;44845;51.444;7.460;2023-02-28T05:08:11;2.97;;;1.20;;
59054;SDS011;44845;51.444;7.460;2023-02-28T05:10:37;5.50;;;2.15;;
59054;SDS011;44845;51.444;7.460;2023-02-28T05:13:02;2.10;;;1.60;;
59054;SDS011;44845;51.444;7.460;2023-02-28T05:15:27;3.78;;;1.33;;
59054;SDS011;44845;51.444;7.460;2023-02-28T05:17:53;2.97;;;1.40;;
59054;SDS011;44845;51.444;7.460;2023-02-28T05:20:18;4.38;;;1.55;;
59054;SDS011;44845;51.444;7.460;2023-02-28T05:22:44;3.80;;;1.65;;
59054;SDS011;44845;51.444;7.460;2023-02-28T05:25:13;2.15;;;1.95;;
59054;SDS011;44845;51.444;7.460;2023-02-28T05:27:43;2.88;;;1.42;;
59054;SDS011;44845;51.444;7.460;2023-02-28T05:30:09;2.47;;;1.63;;
59054;SDS011;44845;51.444;7.460;2023-02-28T05:32:38;5.05;;;1.52;;
59054;SDS011;44845;51.444;7.460;2023-02-28T05:35:07;7.15;;;1.48;;
59054;SDS011;44845;51.444;7.460;2023-02-28T05:37:33;2.13;;;1.50;;
59054;SDS011;44845;51.444;7.460;2023-02-28T05:39:59;4.50;;;1.70;;
59054;SDS011;44845;51.444;7.460;2023-02-28T05:42:24;3.03;;;1.60;;
59054;SDS011;44845;51.444;7.460;2023-02-28T05:44:50;2.30;;;1.50;;
59054;SDS011;44845;51.444;7.460;2023-02-28T05:47:15;5.22;;;1.65;;
59054;SDS011;44845;51.444;7.460;2023-02-28T05:49:41;5.82;;;2.22;;
59054;SDS011;44845;51.444;7.460;2023-02-28T05:52:07;3.33;;;1.52;;
59054;SDS011;44845;51.444;7.460;2023-02-28T05:54:32;2.67;;;1.65;;
59054;SDS011;44845;51.444;7.460;2023-02-28T05:56:58;3.20;;;1.60;;
59054;SDS011;44845;51.444;7.460;2023-02-28T05:59:23;3.35;;;1.50;;
59054;SDS011;44845;51.444;7.460;2023-02-28T06:01:48;3.35;;;1.50;;
59054;SDS011;44845;51.444;7.460;2023-02-28T06:04:14;3.65;;;1.80;;
59054;SDS011;44845;51.444;7.460;2023-02-28T06:06:44;4.50;;;1.75;;
59054;SDS011;44845;51.444;7.460;2023-02-28T06:09:12;1.58;;;1.42;;
59054;SDS011;44845;51.444;7.460;2023-02-28T06:11:38;2.97;;;1.83;;
59054;SDS011;44845;51.444;7.460;2023-02-28T06:14:04;3.55;;;1.85;;
59054;SDS011;44845;51.444;7.460;2023-02-28T06:16:30;5.20;;;2.55;;
59054;SDS011;44845;51.444;7.460;2023-02-28T06:18:57;6.03;;;2.13;;
59054;SDS011;44845;51.444;7.460;2023-02-28T06:21:24;3.38;;;2.08;;
59054;SDS011;44845;51.444;7.460;2023-02-28T06:23:52;4.45;;;1.80;;
59054;SDS011;44845;51.444;7.460;2023-02-28T06:26:18;4.57;;;2.20;;
59054;SDS011;44845;51.444;7.460;2023-02-28T06:28:43;4.38;;;1.95;;
59054;SDS011;44845;51.444;7.460;2023-02-28T06:31:09;3.17;;;1.85;;
59054;SDS011;44845;51.444;7.460;2023-02-28T06:33:37;4.93;;;1.65;;
59054;SDS011;44845;51.444;7.460;2023-02-28T06:36:03;6.43;;;1.92;;
59054;SDS011;44845;51.444;7.460;2023-02-28T06:38:29;5.53;;;2.00;;
59054;SDS011;44845;51.444;7.460;2023-02-28T06:40:56;5.22;;;1.42;;
59054;SDS011;44845;51.444;7.460;2023-02-28T06:43:22;4.50;;;1.90;;
59054;SDS011;44845;51.444;7.460;2023-02-28T06:45:48;5.68;;;2.47;;
59054;SDS011;44845;51.444;7.460;2023-02-28T06:48:13;4.25;;;2.10;;
59054;SDS011;44845;51.444;7.460;2023-02-28T06:50:39;4.30;;;2.47;;
59054;SDS011;44845;51.444;7.460;2023-02-28T06:53:04;3.10;;;1.92;;
59054;SDS011;44845;51.444;7.460;2023-02-28T06:55:30;4.00;;;2.20;;
59054;SDS011;44845;51.444;7.460;2023-02-28T06:57:56;9.88;;;3.08;;
59054;SDS011;44845;51.444;7.460;2023-02-28T07:00:22;5.63;;;2.50;;
59054;SDS011;44845;51.444;7.460;2023-02-28T07:02:47;9.07;;;2.17;;
59054;SDS011;44845;51.444;7.460;2023-02-28T07:05:13;4.60;;;2.08;;
59054;SDS011;44845;51.444;7.460;2023-02-28T07:07:38;4.65;;;1.98;;
59054;SDS011;44845;51.444;7.460;2023-02-28T07:10:08;7.55;;;2.58;;
59054;SDS011;44845;51.444;7.460;2023-02-28T07:12:37;5.50;;;2.20;;
59054;SDS011;44845;51.444;7.460;2023-02-28T07:15:03;3.65;;;2.38;;
59054;SDS011;44845;51.444;7.460;2023-02-28T07:17:29;6.50;;;2.65;;
59054;SDS011;44845;51.444;7.460;2023-02-28T07:19:54;4.45;;;2.15;;
59054;SDS011;44845;51.444;7.460;2023-02-28T07:22:20;7.47;;;2.47;;
59054;SDS011;44845;51.444;7.460;2023-02-28T07:24:45;4.03;;;2.00;;
59054;SDS011;44845;51.444;7.460;2023-02-28T07:27:10;6.85;;;2.30;;
59054;SDS011;44845;51.444;7.460;2023-02-28T07:29:36;4.43;;;2.88;;
59054;SDS011;44845;51.444;7.460;2023-02-28T07:32:02;5.50;;;2.75;;
59054;SDS011;44845;51.444;7.460;2023-02-28T07:34:27;4.53;;;2.80;;
59054;SDS011;44845;51.444;7.460;2023-02-28T07:36:53;4.32;;;2.47;;
59054;SDS011;44845;51.444;7.460;2023-02-28T07:39:19;2.88;;;2.15;;
59054;SDS011;44845;51.444;7.460;2023-02-28T07:41:45;5.55;;;2.45;;
59054;SDS011;44845;51.444;7.460;2023-02-28T07:44:10;3.92;;;2.50;;
59054;SDS011;44845;51.444;7.460;2023-02-28T07:46:36;4.00;;;2.00;;
59054;SDS011;44845;51.444;7.460;2023-02-28T07:49:02;4.95;;;2.40;;
59054;SDS011;44845;51.444;7.460;2023-02-28T07:51:28;6.53;;;2.88;;
59054;SDS011;44845;51.444;7.460;2023-02-28T07:53:54;8.48;;;3.10;;
59054;SDS011;44845;51.444;7.460;2023-02-28T07:56:20;4.20;;;2.65;;
59054;SDS011;44845;51.444;7.460;2023-02-28T07:58:45;7.43;;;2.38;;
59054;SDS011;44845;51.444;7.460;2023-02-28T08:01:11;4.65;;;2.38;;
59054;SDS011;44845;51.444;7.460;2023-02-28T08:03:37;6.40;;;2.50;;
59054;SDS011;44845;51.444;7.460;2023-02-28T08:06:03;4.63;;;2.35;;
59054;SDS011;44845;51.444;7.460;2023-02-28T08:08:30;2.70;;;2.15;;
59054;SDS011;44845;51.444;7.460;2023-02-28T08:10:58;5.65;;;2.20;;
59054;SDS011;44845;51.444;7.460;2023-02-28T08:13:25;7.38;;;3.05;;
59054;SDS011;44845;51.444;7.460;2023-02-28T08:15:52;8.90;;;2.83;;
59054;SDS011;44845;51.444;7.460;2023-02-28T08:18:17;4.55;;;2.90;;
59054;SDS011;44845;51.444;7.460;2023-02-28T08:20:43;5.65;;;3.10;;
59054;SDS011;44845;51.444;7.460;2023-02-28T08:23:08;5.00;;;2.63;;
59054;SDS011;44845;51.444;7.460;2023-02-28T08:25:33;6.13;;;2.88;;
59054;SDS011;44845;51.444;7.460;2023-02-28T08:27:59;4.55;;;3.25;;
59054;SDS011;44845;51.444;7.460;2023-02-28T08:30:24;5.28;;;2.95;;
59054;SDS011;44845;51.444;7.460;2023-02-28T08:32:49;6.68;;;2.85;;
59054;SDS011;44845;51.444;7.460;2023-02-28T08:35:15;3.20;;;2.38;;
59054;SDS011;44845;51.444;7.460;2023-02-28T08:37:40;5.68;;;2.80;;
59054;SDS011;44845;51.444;7.460;2023-02-28T08:40:06;5.20;;;2.90;;
59054;SDS011;44845;51.444;7.460;2023-02-28T08:42:32;4.78;;;2.80;;
59054;SDS011;44845;51.444;7.460;2023-02-28T08:44:57;5.30;;;2.92;;
59054;SDS011;44845;51.444;7.460;2023-02-28T08:47:23;6.05;;;2.90;;
59054;SDS011;44845;51.444;7.460;2023-02-28T08:49:48;4.00;;;2.95;;
59054;SDS011;44845;51.444;7.460;2023-02-28T08:52:13;5.90;;;3.33;;
59054;SDS011;44845;51.444;7.460;2023-02-28T08:54:39;5.53;;;2.78;;
59054;SDS011;44845;51.444;7.460;2023-02-28T08:57:04;4.60;;;2.78;;
59054;SDS011;44845;51.444;7.460;2023-02-28T08:59:30;7.03;;;2.95;;
59054;SDS011;44845;51.444;7.460;2023-02-28T09:01:55;5.70;;;2.33;;
59054;SDS011;44845;51.444;7.460;2023-02-28T09:04:21;3.17;;;2.22;;
59054;SDS011;44845;51.444;7.460;2023-02-28T09:06:47;4.85;;;2.25;;
59054;SDS011;44845;51.444;7.460;2023-02-28T09:09:13;3.67;;;2.70;;
59054;SDS011;44845;51.444;7.460;2023-02-28T09:11:39;4.03;;;2.22;;
59054;SDS011;44845;51.444;7.460;2023-02-28T09:14:04;7.63;;;1.92;;
59054;SDS011;44845;51.444;7.460;2023-02-28T09:16:30;6.10;;;2.15;;
59054;SDS011;44845;51.444;7.460;2023-02-28T09:18:56;4.82;;;2.25;;
59054;SDS011;44845;51.444;7.460;2023-02-28T09:21:22;3.90;;;2.03;;
59054;SDS011;44845;51.444;7.460;2023-02-28T09:23:48;3.38;;;1.80;;
59054;SDS011;44845;51.444;7.460;2023-02-28T09:26:16;3.90;;;2.08;;
59054;SDS011;44845;51.444;7.460;2023-02-28T09:28:43;4.03;;;2.20;;
59054;SDS011;44845;51.444;7.460;2023-02-28T09:31:13;3.67;;;1.60;;
59054;SDS011;44845;51.444;7.460;2023-02-28T09:33:40;5.75;;;1.92;;
59054;SDS011;44845;51.444;7.460;2023-02-28T09:36:06;3.60;;;1.95;;
59054;SDS011;44845;51.444;7.460;2023-02-28T09:38:32;3.78;;;1.90;;
59054;SDS011;44845;51.444;7.460;2023-02-28T09:41:01;6.93;;;1.65;;
59054;SDS011;44845;51.444;7.460;2023-02-28T09:43:33;2.22;;;1.50;;
59054;SDS011;44845;51.444;7.460;2023-02-28T09:46:12;1.92;;;1.55;;
59054;SDS011;44845;51.444;7.460;2023-02-28T09:49:00;3.65;;;1.45;;
59054;SDS011;44845;51.444;7.460;2023-02-28T09:51:33;3.88;;;1.23;;
59054;SDS011;44845;51.444;7.460;2023-02-28T09:54:14;3.20;;;1.50;;
59054;SDS011;44845;51.444;7.460;2023-02-28T09:56:50;4.55;;;1.65;;
59054;SDS011;44845;51.444;7.460;2023-02-28T09:59:28;3.08;;;1.10;;
59054;SDS011;44845;51.444;7.460;2023-02-28T10:02:04;4.03;;;1.73;;
59054;SDS011;44845;51.444;7.460;2023-02-28T10:05:05;2.33;;;1.38;;
59054;SDS011;44845;51.444;7.460;2023-02-28T10:07:45;2.33;;;1.02;;
59054;SDS011;44845;51.444;7.460;2023-02-28T10:13:02;1.60;;;1.13;;
59054;SDS011;44845;51.444;7.460;2023-02-28T10:15:38;1.60;;;1.20;;
59054;SDS011;44845;51.444;7.460;2023-02-28T10:18:04;1.23;;;1.00;;
59054;SDS011;44845;51.444;7.460;2023-02-28T10:20:35;2.33;;;1.23;;
59054;SDS011;44845;51.444;7.460;2023-02-28T10:23:05;1.63;;;1.13;;
59054;SDS011;44845;51.444;7.460;2023-02-28T10:25:37;2.00;;;1.30;;
59054;SDS011;44845;51.444;7.460;2023-02-28T10:28:13;3.38;;;1.40;;
59054;SDS011;44845;51.444;7.460;2023-02-28T10:30:41;1.50;;;1.27;;
59054;SDS011;44845;51.444;7.460;2023-02-28T10:33:21;2.08;;;1.00;;
59054;SDS011;44845;51.444;7.460;2023-02-28T10:35:53;2.33;;;1.27;;
59054;SDS011;44845;51.444;7.460;2023-02-28T10:38:24;1.52;;;0.95;;
59054;SDS011;44845;51.444;7.460;2023-02-28T10:41:07;8.38;;;1.13;;
59054;SDS011;44845;51.444;7.460;2023-02-28T10:43:35;1.73;;;1.13;;
59054;SDS011;44845;51.444;7.460;2023-02-28T10:48:42;4.03;;;1.00;;
59054;SDS011;44845;51.444;7.460;2023-02-28T10:51:11;1.52;;;1.13;;
59054;SDS011;44845;51.444;7.460;2023-02-28T10:53:48;4.25;;;1.10;;
59054;SDS011;44845;51.444;7.460;2023-02-28T10:56:23;3.63;;;1.30;;
59054;SDS011;44845;51.444;7.460;2023-02-28T11:03:57;1.27;;;1.10;;
59054;SDS011;44845;51.444;7.460;2023-02-28T11:06:23;2.08;;;1.25;;
59054;SDS011;44845;51.444;7.460;2023-02-28T11:08:52;1.75;;;1.40;;
59054;SDS011;44845;51.444;7.460;2023-02-28T11:11:24;1.63;;;1.25;;
59054;SDS011;44845;51.444;7.460;2023-02-28T11:13:52;1.98;;;1.20;;
59054;SDS011;44845;51.444;7.460;2023-02-28T11:16:20;2.97;;;1.38;;
59054;SDS011;44845;51.444;7.460;2023-02-28T11:18:53;2.60;;;1.58;;
59054;SDS011;44845;51.444;7.460;2023-02-28T11:21:32;3.67;;;1.60;;
59054;SDS011;44845;51.444;7.460;2023-02-28T11:24:05;2.55;;;1.45;;
59054;SDS011;44845;51.444;7.460;2023-02-28T11:26:44;3.05;;;1.40;;
59054;SDS011;44845;51.444;7.460;2023-02-28T11:29:23;5.60;;;1.52;;
59054;SDS011;44845;51.444;7.460;2023-02-28T11:32:13;2.75;;;1.50;;
59054;SDS011;44845;51.444;7.460;2023-02-28T11:34:43;2.83;;;1.25;;
59054;SDS011;44845;51.444;7.460;2023-02-28T11:37:12;1.88;;;1.58;;
59054;SDS011;44845;51.444;7.460;2023-02-28T11:39:39;3.10;;;1.50;;
59054;SDS011;44845;51.444;7.460;2023-02-28T11:47:30;4.40;;;1.55;;
59054;SDS011;44845;51.444;7.460;2023-02-28T11:52:51;2.35;;;1.60;;
59054;SDS011;44845;51.444;7.460;2023-02-28T11:55:21;6.40;;;1.65;;
59054;SDS011;44845;51.444;7.460;2023-02-28T11:58:00;2.85;;;1.60;;
59054;SDS011;44845;51.444;7.460;2023-02-28T12:08:44;1.98;;;1.40;;
59054;SDS011;44845;51.444;7.460;2023-02-28T12:11:24;1.45;;;1.23;;
59054;SDS011;44845;51.444;7.460;2023-02-28T12:16:43;2.55;;;1.55;;
59054;SDS011;44845;51.444;7.460;2023-02-28T12:21:50;3.45;;;1.60;;
59054;SDS011;44845;51.444;7.460;2023-02-28T12:26:54;2.92;;;1.60;;
59054;SDS011;44845;51.444;7.460;2023-02-28T12:29:26;2.08;;;1.63;;
59054;SDS011;44845;51.444;7.460;2023-02-28T12:32:11;1.50;;;1.40;;
59054;SDS011;44845;51.444;7.460;2023-02-28T12:34:46;1.90;;;1.58;;
59054;SDS011;44845;51.444;7.460;2023-02-28T12:37:25;3.45;;;1.85;;
59054;SDS011;44845;51.444;7.460;2023-02-28T12:40:02;2.05;;;1.50;;
59054;SDS011;44845;51.444;7.460;2023-02-28T12:42:39;4.53;;;1.42;;
59054;SDS011;44845;51.444;7.460;2023-02-28T12:45:11;3.58;;;1.80;;
59054;SDS011;44845;51.444;7.460;2023-02-28T12:47:42;2.38;;;1.75;;
59054;SDS011;44845;51.444;7.460;2023-02-28T12:50:11;3.22;;;1.65;;
59054;SDS011;44845;51.444;7.460;2023-02-28T13:01:20;4.50;;;1.95;;
59054;SDS011;44845;51.444;7.460;2023-02-28T13:09:30;3.20;;;1.92;;
59054;SDS011;44845;51.444;7.460;2023-02-28T13:11:55;2.28;;;1.88;;
59054;SDS011;44845;51.444;7.460;2023-02-28T13:19:25;2.85;;;1.92;;
59054;SDS011;44845;51.444;7.460;2023-02-28T13:21:54;4.82;;;2.00;;
59054;SDS011;44845;51.444;7.460;2023-02-28T13:29:39;2.15;;;2.00;;
59054;SDS011;44845;51.444;7.460;2023-02-28T13:34:46;4.03;;;2.00;;
59054;SDS011;44845;51.444;7.460;2023-02-28T13:37:33;6.20;;;2.10;;
59054;SDS011;44845;51.444;7.460;2023-02-28T13:40:26;5.38;;;2.20;;
59054;SDS011;44845;51.444;7.460;2023-02-28T13:42:54;4.13;;;1.90;;
59054;SDS011;44845;51.444;7.460;2023-02-28T13:45:20;3.47;;;1.73;;
59054;SDS011;44845;51.444;7.460;2023-02-28T13:48:03;3.38;;;1.92;;
59054;SDS011;44845;51.444;7.460;2023-02-28T13:50:43;3.10;;;2.22;;
59054;SDS011;44845;51.444;7.460;2023-02-28T14:04:14;2.28;;;1.80;;
59054;SDS011;44845;51.444;7.460;2023-02-28T14:06:52;2.50;;;1.75;;
59054;SDS011;44845;51.444;7.460;2023-02-28T14:15:25;2.33;;;1.90;;
59054;SDS011;44845;51.444;7.460;2023-02-28T14:18:20;2.15;;;1.90;;
59054;SDS011;44845;51.444;7.460;2023-02-28T14:20:53;4.57;;;2.88;;
59054;SDS011;44845;51.444;7.460;2023-02-28T14:23:35;6.50;;;2.35;;
59054;SDS011;44845;51.444;7.460;2023-02-28T14:26:19;2.15;;;1.90;;
59054;SDS011;44845;51.444;7.460;2023-02-28T14:29:37;6.15;;;2.20;;
59054;SDS011;44845;51.444;7.460;2023-02-28T14:31:53;3.20;;;2.05;;
59054;SDS011;44845;51.444;7.460;2023-02-28T14:37:20;2.47;;;2.08;;
59054;SDS011;44845;51.444;7.460;2023-02-28T14:39:52;3.33;;;2.25;;
59054;SDS011;44845;51.444;7.460;2023-02-28T14:45:30;3.25;;;2.30;;
59054;SDS011;44845;51.444;7.460;2023-02-28T14:48:02;2.22;;;2.03;;
59054;SDS011;44845;51.444;7.460;2023-02-28T14:50:34;3.05;;;1.98;;
59054;SDS011;44845;51.444;7.460;2023-02-28T14:53:00;2.92;;;2.30;;
59054;SDS011;44845;51.444;7.460;2023-02-28T14:55:30;4.90;;;2.40;;
59054;SDS011;44845;51.444;7.460;2023-02-28T14:57:59;6.07;;;2.17;;
59054;SDS011;44845;51.444;7.460;2023-02-28T15:00:35;5.05;;;2.30;;
59054;SDS011;44845;51.444;7.460;2023-02-28T15:03:19;2.72;;;1.95;;
59054;SDS011;44845;51.444;7.460;2023-02-28T15:05:56;3.13;;;2.13;;
59054;SDS011;44845;51.444;7.460;2023-02-28T15:08:23;3.60;;;2.33;;
59054;SDS011;44845;51.444;7.460;2023-02-28T15:11:08;4.00;;;2.47;;
59054;SDS011;44845;51.444;7.460;2023-02-28T15:13:51;3.58;;;1.98;;
59054;SDS011;44845;51.444;7.460;2023-02-28T15:16:20;2.80;;;2.30;;
59054;SDS011;44845;51.444;7.460;2023-02-28T15:21:19;2.88;;;2.03;;
59054;SDS011;44845;51.444;7.460;2023-02-28T15:23:46;2.90;;;2.28;;
59054;SDS011;44845;51.444;7.460;2023-02-28T15:26:20;2.75;;;2.53;;
59054;SDS011;44845;51.444;7.460;2023-02-28T15:28:51;4.13;;;2.22;;
59054;SDS011;44845;51.444;7.460;2023-02-28T15:31:26;5.35;;;2.53;;
59054;SDS011;44845;51.444;7.460;2023-02-28T15:33:58;3.45;;;2.40;;
59054;SDS011;44845;51.444;7.460;2023-02-28T15:36:29;2.85;;;2.30;;
59054;SDS011;44845;51.444;7.460;2023-02-28T15:38:58;3.63;;;2.40;;
59054;SDS011;44845;51.444;7.460;2023-02-28T15:41:29;2.92;;;2.28;;
59054;SDS011;44845;51.444;7.460;2023-02-28T15:46:58;5.25;;;2.22;;
59054;SDS011;44845;51.444;7.460;2023-02-28T15:52:29;2.35;;;2.13;;
59054;SDS011;44845;51.444;7.460;2023-02-28T15:55:16;10.32;;;4.70;;
59054;SDS011;44845;51.444;7.460;2023-02-28T15:57:45;2.60;;;2.15;;
59054;SDS011;44845;51.444;7.460;2023-02-28T16:00:14;3.75;;;2.15;;
59054;SDS011;44845;51.444;7.460;2023-02-28T16:02:43;4.63;;;2.50;;
59054;SDS011;44845;51.444;7.460;2023-02-28T16:07:35;4.05;;;2.47;;
59054;SDS011;44845;51.444;7.460;2023-02-28T16:10:02;3.13;;;2.50;;
59054;SDS011;44845;51.444;7.460;2023-02-28T16:12:29;3.55;;;2.30;;
59054;SDS011;44845;51.444;7.460;2023-02-28T16:14:57;3.60;;;2.33;;
59054;SDS011;44845;51.444;7.460;2023-02-28T16:17:28;3.80;;;2.30;;
59054;SDS011;44845;51.444;7.460;2023-02-28T16:19:56;6.88;;;2.40;;
59054;SDS011;44845;51.444;7.460;2023-02-28T16:22:21;2.97;;;2.10;;
59054;SDS011;44845;51.444;7.460;2023-02-28T16:24:47;3.28;;;2.15;;
59054;SDS011;44845;51.444;7.460;2023-02-28T16:27:30;2.33;;;1.92;;
59054;SDS011;44845;51.444;7.460;2023-02-28T16:29:57;3.05;;;2.03;;
59054;SDS011;44845;51.444;7.460;2023-02-28T16:32:23;1.90;;;1.70;;
59054;SDS011;44845;51.444;7.460;2023-02-28T16:34:48;7.00;;;2.55;;
59054;SDS011;44845;51.444;7.460;2023-02-28T16:37:15;5.75;;;2.00;;
59054;SDS011;44845;51.444;7.460;2023-02-28T16:39:42;2.92;;;2.30;;
59054;SDS011;44845;51.444;7.460;2023-02-28T16:42:15;2.92;;;1.90;;
59054;SDS011;44845;51.444;7.460;2023-02-28T16:44:46;2.60;;;1.85;;
59054;SDS011;44845;51.444;7.460;2023-02-28T16:47:12;3.65;;;2.20;;
59054;SDS011;44845;51.444;7.460;2023-02-28T16:49:37;4.30;;;2.38;;
59054;SDS011;44845;51.444;7.460;2023-02-28T16:52:03;3.63;;;2.05;;
59054;SDS011;44845;51.444;7.460;2023-02-28T16:54:29;2.35;;;1.80;;
59054;SDS011;44845;51.444;7.460;2023-02-28T16:56:54;4.82;;;2.53;;
59054;SDS011;44845;51.444;7.460;2023-02-28T16:59:23;5.28;;;2.60;;
59054;SDS011;44845;51.444;7.460;2023-02-28T17:01:50;3.15;;;2.42;;
59054;SDS011;44845;51.444;7.460;2023-02-28T17:04:16;5.72;;;2.75;;